DRZA/AJY METAR and TAF weather

Enter ICAO airport designator
Station Type Date Time Source
DRZA METAR 2020/01/17 18:00 UTC NOAA

DRZA 171800Z 14018KT CAVOK 22/02 Q1019


Station Type Date Time Source
DRZA Decoded METAR 2020/01/17 18:00 UTC NOAA

Agadez, Niger (DRZA) 16-58N 007-59E 502M
Jan 17, 2020 - 01:00 PM EST / 2020.01.17 1800 UTC
Wind: from the SE (140 degrees) at 21 MPH (18 KT):0
Visibility: greater than 7 mile(s):0
Temperature: 71 F (22 C)
Dew Point: 35 F (2 C)
Relative Humidity: 26%
Pressure (altimeter): 30.09 in. Hg (1019 hPa)
ob: DRZA 171800Z 14018KT CAVOK 22/02 Q1019
cycle: 18

Station Type Date Time Source
DRZA TAF 2020/01/17 18:21 UTC NOAA

TAF DRZA 171700Z 1718/1818 08015KT 8000 NSC
BECMG 1803/1805 3500 DU
TEMPO 1807/1813 10025KT 2000 BLDU
BECMG 1814/1816 6000 NSW

Example: see airport list